createdAt,value
2019-06-01T00:19:27.631Z,97477.70
2019-06-01T00:34:50.104Z,97461.55
2019-06-01T00:50:01.817Z,97458.56
2019-06-01T01:05:22.739Z,97454.20
2019-06-01T01:20:31.852Z,97444.54
2019-06-01T01:35:40.994Z,97449.81
2019-06-01T01:50:50.241Z,97452.83
2019-06-01T02:05:59.251Z,97444.93
2019-06-01T02:21:08.732Z,97440.96
2019-06-01T02:36:19.075Z,97431.20
2019-06-01T02:51:28.929Z,97434.54
2019-06-01T03:06:41.647Z,97426.50
2019-06-01T03:21:51.715Z,97421.55
2019-06-01T03:37:01.113Z,97430.06
2019-06-01T03:52:10.612Z,97438.86
2019-06-01T04:07:19.899Z,97437.11
2019-06-01T04:22:29.486Z,97437.16
2019-06-01T04:37:41.006Z,97437.95
2019-06-01T04:52:50.189Z,97432.66
2019-06-01T05:07:58.658Z,97438.64
2019-06-01T05:23:08.622Z,97436.62
2019-06-01T05:38:18.501Z,97436.07
2019-06-01T05:53:44.238Z,97428.08
2019-06-01T06:08:56.167Z,97418.19
2019-06-01T06:24:06.137Z,97410.32
2019-06-01T06:39:15.757Z,97405.70
2019-06-01T06:54:27.006Z,97403.88
2019-06-01T07:09:37.338Z,97409.83
2019-06-01T07:24:46.270Z,97408.75
2019-06-01T07:39:57.062Z,97409.20
2019-06-01T07:55:12.185Z,97406.38
2019-06-01T08:10:23.107Z,97398.56
2019-06-01T08:25:32.863Z,97392.33
2019-06-01T08:40:41.616Z,97402.17
2019-06-01T08:55:49.986Z,97403.31
2019-06-01T09:11:00.753Z,97414.11
2019-06-01T09:26:13.795Z,97411.18
2019-06-01T09:41:24.341Z,97410.11
2019-06-01T09:56:37.224Z,97415.67
2019-06-01T10:11:47.005Z,97404.28
2019-06-01T10:26:56.452Z,97397.52
2019-06-01T10:42:06.292Z,97385.96
2019-06-01T10:57:34.490Z,97369.91
2019-06-01T11:51:26.956Z,97327.94
2019-06-01T12:06:37.828Z,97308.33
2019-06-01T12:21:51.379Z,97305.61
2019-06-01T12:37:02.352Z,97301.09
2019-06-01T12:52:29.244Z,97281.88
2019-06-01T13:07:50.897Z,97261.48
2019-06-01T13:22:47.713Z,97258.95
2019-06-01T13:38:10.471Z,97232.37
2019-06-01T13:53:10.163Z,97227.16
2019-06-01T14:08:29.054Z,97282.66
2019-06-01T14:23:30.343Z,97280.59
2019-06-01T14:38:47.102Z,97253.80
2019-06-01T14:54:08.482Z,97239.29
2019-06-01T15:09:19.312Z,97220.16
2019-06-01T15:41:58.909Z,97198.84
2019-06-01T15:57:11.481Z,97186.27
2019-06-01T16:12:41.085Z,97160.83
2019-06-01T16:27:54.622Z,97174.23
2019-06-01T16:43:15.485Z,97162.33
2019-06-01T18:19:56.628Z,97164.02
2019-06-01T18:35:07.597Z,97165.09
2019-06-01T18:50:17.768Z,97167.28
2019-06-01T19:05:29.180Z,97182.30
2019-06-01T19:20:39.168Z,97191.93
2019-06-01T19:35:49.764Z,97202.79
2019-06-01T19:51:00.520Z,97208.91
2019-06-01T20:06:09.111Z,97216.55
2019-06-01T20:21:20.665Z,97212.73
2019-06-01T20:36:30.384Z,97213.09
2019-06-01T20:51:43.520Z,97226.27
2019-06-01T21:07:17.836Z,97226.66
2019-06-01T21:22:25.854Z,97247.78
2019-06-01T21:37:34.952Z,97246.62
2019-06-01T21:52:54.303Z,97259.50
2019-06-01T22:08:07.072Z,97235.76
2019-06-01T22:23:17.900Z,97235.76
2019-06-01T22:38:30.866Z,97254.30
2019-06-01T22:53:40.587Z,97242.08
2019-06-01T23:25:07.210Z,97232.84
2019-06-01T23:40:16.975Z,97217.05
